createdAt,value
2022-12-13T00:00:18.346Z,-5.65
2022-12-13T00:02:47.193Z,-5.71
2022-12-13T00:05:15.752Z,-5.43
2022-12-13T00:07:46.319Z,-5.48
2022-12-13T00:10:15.812Z,-5.65
2022-12-13T00:12:45.062Z,-5.48
2022-12-13T00:15:13.782Z,-5.04
2022-12-13T00:17:51.358Z,-5.08
2022-12-13T00:23:43.649Z,-5.50
2022-12-13T00:26:15.541Z,-5.19
2022-12-13T00:28:44.088Z,-5.39
2022-12-13T00:31:53.412Z,-5.44
2022-12-13T00:34:09.861Z,-5.29
2022-12-13T00:36:37.753Z,-5.43
2022-12-13T00:39:05.906Z,-5.63
2022-12-13T00:41:37.868Z,-5.97
2022-12-13T00:44:06.401Z,-6.07
2022-12-13T00:46:38.716Z,-5.69
2022-12-13T00:49:06.721Z,-5.27
2022-12-13T00:51:36.721Z,-5.07
2022-12-13T00:54:05.566Z,-5.33
2022-12-13T00:56:35.337Z,-5.67
2022-12-13T00:59:03.620Z,-5.59
2022-12-13T01:01:34.081Z,-5.67
2022-12-13T01:04:05.583Z,-6.00
2022-12-13T01:06:37.599Z,-5.77
2022-12-13T01:09:07.304Z,-5.65
2022-12-13T01:11:39.155Z,-5.55
2022-12-13T01:14:11.252Z,-5.58
2022-12-13T01:16:42.366Z,-5.54
2022-12-13T01:19:10.536Z,-5.45
2022-12-13T01:21:39.188Z,-6.02
2022-12-13T01:24:08.033Z,-6.06
2022-12-13T01:26:37.274Z,-6.30
2022-12-13T01:29:09.659Z,-6.65
2022-12-13T01:31:41.568Z,-6.77
2022-12-13T01:34:11.441Z,-6.80
2022-12-13T01:36:40.245Z,-6.74
2022-12-13T01:39:15.094Z,-6.30
2022-12-13T01:41:46.603Z,-6.07
2022-12-13T01:44:52.005Z,-6.06
2022-12-13T01:47:27.558Z,-5.74
2022-12-13T01:50:03.578Z,-5.89
2022-12-13T01:52:36.800Z,-6.44
2022-12-13T01:55:07.766Z,-6.37
2022-12-13T02:01:25.773Z,-6.16
2022-12-13T02:03:55.833Z,-6.55
2022-12-13T02:06:35.901Z,-6.50
2022-12-13T02:09:06.840Z,-6.16
2022-12-13T02:11:36.612Z,-6.17
2022-12-13T02:14:05.552Z,-6.73
2022-12-13T02:16:53.082Z,-6.84
2022-12-13T02:19:54.771Z,-6.78
2022-12-13T02:22:45.145Z,-6.73
2022-12-13T02:25:40.423Z,-7.02
2022-12-13T02:28:31.312Z,-7.21
2022-12-13T02:31:13.358Z,-7.36
2022-12-13T02:33:54.030Z,-7.11
2022-12-13T02:36:36.123Z,-7.40
2022-12-13T02:39:11.109Z,-7.70
2022-12-13T02:41:50.409Z,-7.83
2022-12-13T02:44:23.307Z,-7.90
2022-12-13T02:46:56.944Z,-7.59
2022-12-13T02:49:29.334Z,-7.49
2022-12-13T02:51:59.007Z,-7.61
2022-12-13T02:54:27.280Z,-7.75
2022-12-13T02:56:56.649Z,-7.95
2022-12-13T02:59:29.435Z,-7.88
2022-12-13T03:02:10.873Z,-7.73
2022-12-13T03:05:06.577Z,-7.26
2022-12-13T03:07:44.833Z,-6.97
2022-12-13T03:10:20.234Z,-6.60
2022-12-13T03:13:13.427Z,-6.72
2022-12-13T03:15:46.033Z,-6.81
2022-12-13T03:18:31.085Z,-6.38
2022-12-13T03:21:03.697Z,-6.52
2022-12-13T03:23:33.279Z,-6.80
2022-12-13T03:26:05.971Z,-6.98
2022-12-13T03:28:37.843Z,-7.23
2022-12-13T03:31:13.374Z,-7.64
2022-12-13T03:33:50.562Z,-7.40
2022-12-13T03:36:41.915Z,-7.15
2022-12-13T03:39:17.867Z,-7.05
2022-12-13T03:41:45.985Z,-7.43
2022-12-13T03:44:15.978Z,-7.63
2022-12-13T03:46:43.961Z,-7.62
2022-12-13T03:49:19.579Z,-7.67
2022-12-13T03:51:48.143Z,-7.76
2022-12-13T03:54:16.356Z,-7.61
2022-12-13T03:56:44.539Z,-7.43
2022-12-13T03:59:12.501Z,-7.36
2022-12-13T04:01:40.433Z,-7.37
2022-12-13T04:04:08.461Z,-7.34
2022-12-13T04:06:37.712Z,-7.35
2022-12-13T04:09:05.602Z,-7.28
2022-12-13T04:11:50.743Z,-7.33
2022-12-13T04:14:21.933Z,-7.14
2022-12-13T04:16:51.764Z,-7.43
2022-12-13T04:19:23.574Z,-7.76
2022-12-13T04:21:59.761Z,-7.72
2022-12-13T04:24:32.380Z,-7.54
2022-12-13T04:27:16.684Z,-7.39
2022-12-13T04:29:46.667Z,-7.42
2022-12-13T04:32:25.853Z,-7.24
2022-12-13T04:35:12.380Z,-7.25
2022-12-13T04:37:43.374Z,-6.69
2022-12-13T04:40:12.475Z,-6.91
2022-12-13T04:42:42.686Z,-7.30
2022-12-13T04:45:15.953Z,-7.46
2022-12-13T04:47:44.363Z,-7.40
2022-12-13T04:50:12.705Z,-7.72
2022-12-13T04:52:42.055Z,-7.56
2022-12-13T04:55:13.294Z,-7.29
2022-12-13T04:57:41.576Z,-7.20
2022-12-13T05:00:13.711Z,-7.19
2022-12-13T05:02:42.535Z,-7.00
2022-12-13T05:05:11.965Z,-6.86
2022-12-13T05:07:42.268Z,-6.71
2022-12-13T05:10:32.161Z,-6.34
2022-12-13T05:13:02.304Z,-6.30
2022-12-13T05:16:04.331Z,-6.37
2022-12-13T05:18:32.945Z,-6.26
2022-12-13T05:21:03.399Z,-6.07
2022-12-13T05:23:31.351Z,-6.32
2022-12-13T05:26:00.954Z,-6.44
2022-12-13T05:28:29.993Z,-6.48
2022-12-13T05:31:00.730Z,-6.91
2022-12-13T05:33:28.646Z,-7.26
2022-12-13T05:36:01.336Z,-7.39
2022-12-13T05:38:31.459Z,-7.51
2022-12-13T05:41:01.052Z,-7.34
2022-12-13T05:43:42.330Z,-7.47
2022-12-13T05:46:12.651Z,-7.03
2022-12-13T05:48:40.704Z,-6.60
2022-12-13T05:51:11.625Z,-6.39
2022-12-13T05:53:41.710Z,-6.42
2022-12-13T05:56:12.548Z,-6.72
2022-12-13T06:02:48.623Z,-6.87
2022-12-13T06:05:18.185Z,-6.82
2022-12-13T06:07:46.180Z,-6.63
2022-12-13T06:10:21.936Z,-6.92
2022-12-13T06:12:51.426Z,-6.70
2022-12-13T06:15:21.853Z,-6.54
2022-12-13T06:17:50.936Z,-6.59
2022-12-13T06:20:24.473Z,-6.72
2022-12-13T06:22:52.809Z,-6.71
2022-12-13T06:25:31.346Z,-6.62
2022-12-13T06:28:01.629Z,-6.73
2022-12-13T06:30:29.875Z,-6.86
2022-12-13T06:33:00.678Z,-6.80
2022-12-13T06:35:30.226Z,-6.35
2022-12-13T06:38:01.725Z,-6.27
2022-12-13T06:40:30.681Z,-6.62
2022-12-13T06:43:01.318Z,-6.55
2022-12-13T06:45:30.886Z,-6.50
2022-12-13T06:47:58.921Z,-6.72
2022-12-13T06:50:28.087Z,-6.75
2022-12-13T06:52:58.528Z,-6.60
2022-12-13T06:55:26.532Z,-6.84
2022-12-13T06:57:54.420Z,-6.91
2022-12-13T07:00:27.164Z,-6.66
2022-12-13T07:03:06.472Z,-6.59
2022-12-13T07:05:34.776Z,-6.88
2022-12-13T07:08:02.763Z,-6.97
2022-12-13T07:10:30.844Z,-6.86
2022-12-13T07:12:58.952Z,-6.76
2022-12-13T07:15:27.945Z,-6.74
2022-12-13T07:17:55.884Z,-6.52
2022-12-13T07:20:25.608Z,-6.41
2022-12-13T07:22:58.854Z,-6.61
2022-12-13T07:25:29.527Z,-6.47
2022-12-13T07:28:06.009Z,-6.41
2022-12-13T07:30:41.952Z,-6.28
2022-12-13T07:33:25.658Z,-6.36
2022-12-13T07:36:17.176Z,-6.27
2022-12-13T07:38:45.544Z,-6.34
2022-12-13T07:41:13.669Z,-6.43
2022-12-13T07:43:55.168Z,-6.52
2022-12-13T07:46:32.606Z,-6.58
2022-12-13T07:49:02.630Z,-6.36
2022-12-13T07:51:37.805Z,-6.43
2022-12-13T07:54:08.509Z,-6.57
2022-12-13T07:56:37.375Z,-6.54
2022-12-13T07:59:05.480Z,-6.66
2022-12-13T08:01:35.833Z,-6.62
2022-12-13T08:04:04.931Z,-6.63
2022-12-13T08:06:38.698Z,-6.05
2022-12-13T08:09:08.222Z,-6.04
2022-12-13T08:11:37.281Z,-6.09
2022-12-13T08:14:06.385Z,-6.09
2022-12-13T08:16:34.460Z,-6.06
2022-12-13T08:19:05.722Z,-6.07
2022-12-13T08:21:57.260Z,-5.93
2022-12-13T08:24:27.660Z,-5.80
2022-12-13T08:26:57.515Z,-5.63
2022-12-13T08:29:33.392Z,-5.68
2022-12-13T08:32:06.043Z,-5.47
2022-12-13T08:34:34.187Z,-5.29
2022-12-13T08:37:04.562Z,-5.23
2022-12-13T08:39:35.356Z,-5.22
2022-12-13T08:42:15.200Z,-5.00
2022-12-13T08:44:47.807Z,-4.97
2022-12-13T08:47:24.268Z,-4.84
2022-12-13T08:49:55.326Z,-4.69
2022-12-13T08:52:24.974Z,-4.56
2022-12-13T08:54:52.934Z,-4.47
2022-12-13T08:57:21.000Z,-4.50
2022-12-13T08:59:48.972Z,-4.29
2022-12-13T09:02:17.447Z,-4.18
2022-12-13T09:04:45.766Z,-4.11
2022-12-13T09:07:13.990Z,-4.05
2022-12-13T09:09:43.432Z,-3.93
2022-12-13T09:12:30.066Z,-3.71
2022-12-13T09:15:01.405Z,-3.77
2022-12-13T09:17:36.951Z,-3.59
2022-12-13T09:20:10.218Z,-3.14
2022-12-13T09:23:01.794Z,-2.83
2022-12-13T09:25:37.437Z,-2.69
2022-12-13T09:28:08.188Z,-2.49
2022-12-13T09:30:36.364Z,-2.31
2022-12-13T09:33:29.700Z,-1.93
2022-12-13T09:35:53.059Z,-1.45
2022-12-13T09:38:21.646Z,-1.52
2022-12-13T09:40:58.912Z,-1.69
2022-12-13T09:43:33.445Z,-1.79
2022-12-13T09:46:13.490Z,-1.86
2022-12-13T09:49:01.822Z,-2.00
2022-12-13T09:51:41.216Z,-2.26
2022-12-13T09:54:19.636Z,-2.28
2022-12-13T09:56:51.222Z,-2.22
2022-12-13T09:59:20.373Z,-2.34
2022-12-13T10:01:48.540Z,-2.32
2022-12-13T10:04:19.895Z,-2.44
2022-12-13T10:06:48.130Z,-2.32
2022-12-13T10:09:16.391Z,-2.48
2022-12-13T10:11:51.178Z,-2.44
2022-12-13T10:14:27.676Z,-2.23
2022-12-13T10:16:59.189Z,-2.13
2022-12-13T10:19:35.603Z,-2.12
2022-12-13T10:22:05.935Z,-2.08
2022-12-13T10:24:50.916Z,-2.08
2022-12-13T10:27:22.498Z,-2.02
2022-12-13T10:30:10.904Z,-2.04
2022-12-13T10:32:49.641Z,-2.00
2022-12-13T10:35:28.263Z,-1.79
2022-12-13T10:37:58.275Z,-1.66
2022-12-13T10:40:33.313Z,-1.70
2022-12-13T10:43:17.284Z,-1.59
2022-12-13T10:45:59.115Z,-1.54
2022-12-13T10:48:59.681Z,-1.55
2022-12-13T10:51:40.936Z,-1.43
2022-12-13T10:54:19.706Z,-1.50
2022-12-13T10:57:08.110Z,-1.44
2022-12-13T10:59:48.708Z,-1.52
2022-12-13T11:03:03.496Z,-1.59
2022-12-13T11:08:35.437Z,-0.57
2022-12-13T11:11:33.864Z,-0.03
2022-12-13T11:14:03.742Z,0.53
2022-12-13T11:16:36.377Z,0.39
2022-12-13T11:19:07.392Z,0.58
2022-12-13T11:21:40.020Z,0.63
2022-12-13T11:24:22.972Z,0.75
2022-12-13T11:26:56.458Z,1.07
2022-12-13T11:29:43.059Z,0.74
2022-12-13T11:32:30.692Z,0.27
2022-12-13T11:35:09.416Z,0.27
2022-12-13T11:37:48.462Z,0.13
2022-12-13T11:40:24.149Z,-0.16
2022-12-13T11:42:57.010Z,0.22
2022-12-13T11:45:54.451Z,0.47
2022-12-13T11:48:30.688Z,0.21
2022-12-13T11:51:00.911Z,0.45
2022-12-13T11:53:35.945Z,0.36
2022-12-13T11:56:15.768Z,0.51
2022-12-13T11:59:10.288Z,0.34
2022-12-13T12:01:44.173Z,0.74
2022-12-13T12:04:27.564Z,0.65
2022-12-13T12:07:17.761Z,0.68
2022-12-13T12:09:53.378Z,0.54
2022-12-13T12:12:26.339Z,0.26
2022-12-13T12:15:05.838Z,0.46
2022-12-13T12:17:43.445Z,0.28
2022-12-13T12:20:23.867Z,0.87
2022-12-13T12:23:02.947Z,1.36
2022-12-13T12:25:42.526Z,1.82
2022-12-13T12:28:22.857Z,2.70
2022-12-13T12:30:59.734Z,3.21
2022-12-13T12:33:37.386Z,3.27
2022-12-13T12:36:26.803Z,4.05
2022-12-13T12:39:26.633Z,3.73
2022-12-13T12:42:07.738Z,3.50
2022-12-13T12:44:43.269Z,2.89
2022-12-13T12:47:48.982Z,2.95
2022-12-13T12:50:25.950Z,4.20
2022-12-13T12:53:08.464Z,4.09
2022-12-13T12:55:49.732Z,3.68
2022-12-13T12:58:28.758Z,4.03
2022-12-13T13:01:14.533Z,2.90
2022-12-13T13:03:44.970Z,2.53
2022-12-13T13:06:36.801Z,2.09
2022-12-13T13:09:11.282Z,2.40
2022-12-13T13:11:43.047Z,2.24
2022-12-13T13:14:29.968Z,2.23
2022-12-13T13:17:00.276Z,1.65
2022-12-13T13:19:50.709Z,2.00
2022-12-13T13:22:33.852Z,1.98
2022-12-13T13:25:27.314Z,1.76
2022-12-13T13:28:15.196Z,1.25
2022-12-13T13:31:05.280Z,1.44
2022-12-13T13:33:47.873Z,1.63
2022-12-13T13:36:47.735Z,1.38
2022-12-13T13:39:20.512Z,1.37
2022-12-13T13:42:17.473Z,1.24
2022-12-13T13:45:18.441Z,1.46
2022-12-13T13:47:53.411Z,1.51
2022-12-13T13:50:48.500Z,1.96
2022-12-13T13:53:49.060Z,1.89
2022-12-13T13:56:49.964Z,1.52
2022-12-13T13:59:46.579Z,1.00
2022-12-13T14:02:57.145Z,0.20
2022-12-13T14:09:41.003Z,-0.43
2022-12-13T14:12:47.013Z,-0.78
2022-12-13T14:16:05.088Z,-1.00
2022-12-13T14:19:14.879Z,-1.27
2022-12-13T14:22:04.564Z,-1.25
2022-12-13T14:24:50.130Z,-1.41
2022-12-13T14:27:37.039Z,-1.35
2022-12-13T14:33:22.702Z,-1.83
2022-12-13T14:35:58.097Z,-1.84
2022-12-13T14:38:49.644Z,-1.62
2022-12-13T14:41:35.597Z,-1.94
2022-12-13T14:44:19.636Z,-2.00
2022-12-13T14:46:53.594Z,-2.21
2022-12-13T14:49:38.598Z,-2.15
2022-12-13T14:52:29.357Z,-2.13
2022-12-13T14:55:04.465Z,-2.41
2022-12-13T14:57:37.909Z,-2.65
2022-12-13T15:00:25.983Z,-2.78
2022-12-13T15:02:57.307Z,-2.81
2022-12-13T15:05:29.378Z,-2.77
2022-12-13T15:08:10.249Z,-3.12
2022-12-13T15:10:41.996Z,-3.06
2022-12-13T15:14:22.880Z,-3.37
2022-12-13T15:16:57.450Z,-3.03
2022-12-13T15:19:33.985Z,-3.33
2022-12-13T15:22:11.193Z,-3.18
2022-12-13T15:24:47.239Z,-3.28
2022-12-13T15:27:17.568Z,-3.29
2022-12-13T15:29:48.428Z,-3.48
2022-12-13T15:32:23.401Z,-3.61
2022-12-13T15:34:58.457Z,-3.43
2022-12-13T15:37:32.925Z,-3.44
2022-12-13T15:40:11.088Z,-3.49
2022-12-13T15:43:07.964Z,-3.48
2022-12-13T15:45:47.441Z,-3.73
2022-12-13T15:48:39.523Z,-3.64
2022-12-13T15:51:13.380Z,-3.96
2022-12-13T15:54:22.319Z,-4.08
2022-12-13T15:57:35.098Z,-3.84
2022-12-13T16:00:29.327Z,-3.60
2022-12-13T16:03:15.798Z,-3.65
2022-12-13T16:05:51.659Z,-3.82
2022-12-13T16:08:29.056Z,-4.01
2022-12-13T16:10:58.462Z,-4.24
2022-12-13T16:13:33.268Z,-4.46
2022-12-13T16:16:26.859Z,-4.69
2022-12-13T16:19:00.059Z,-4.73
2022-12-13T16:21:29.130Z,-5.01
2022-12-13T16:23:57.373Z,-4.80
2022-12-13T16:26:28.099Z,-4.80
2022-12-13T16:28:58.681Z,-5.12
2022-12-13T16:31:35.491Z,-5.19
2022-12-13T16:34:07.700Z,-5.06
2022-12-13T16:36:36.422Z,-4.92
2022-12-13T16:39:05.610Z,-5.03
2022-12-13T16:41:37.984Z,-4.99
2022-12-13T16:44:08.911Z,-5.19
2022-12-13T16:47:16.880Z,-4.93
2022-12-13T16:49:31.501Z,-4.97
2022-12-13T16:52:00.173Z,-4.94
2022-12-13T16:54:28.541Z,-4.93
2022-12-13T16:56:57.362Z,-5.25
2022-12-13T16:59:27.350Z,-5.13
2022-12-13T17:01:56.965Z,-4.97
2022-12-13T17:04:27.122Z,-5.19
2022-12-13T17:07:00.202Z,-5.54
2022-12-13T17:09:28.207Z,-5.61
2022-12-13T17:11:57.541Z,-5.50
2022-12-13T17:14:25.641Z,-5.61
2022-12-13T17:16:53.823Z,-5.58
2022-12-13T17:19:23.620Z,-5.15
2022-12-13T17:21:51.674Z,-5.54
2022-12-13T17:24:19.759Z,-5.74
2022-12-13T17:26:54.663Z,-5.70
2022-12-13T17:29:24.035Z,-5.57
2022-12-13T17:31:52.119Z,-5.46
2022-12-13T17:34:20.543Z,-5.40
2022-12-13T17:36:50.099Z,-5.12
2022-12-13T17:39:18.106Z,-5.35
2022-12-13T17:41:54.901Z,-5.49
2022-12-13T17:44:27.081Z,-5.41
2022-12-13T17:46:57.746Z,-5.07
2022-12-13T17:49:27.013Z,-5.05
2022-12-13T17:56:14.000Z,-4.69
2022-12-13T17:58:53.428Z,-4.93
2022-12-13T18:05:31.127Z,-4.81
2022-12-13T18:08:20.383Z,-4.68
2022-12-13T18:14:33.196Z,-4.76
2022-12-13T18:20:39.476Z,-4.83
2022-12-13T18:23:16.119Z,-4.70
2022-12-13T18:25:54.229Z,-4.64
2022-12-13T18:28:31.523Z,-4.42
2022-12-13T18:31:20.667Z,-4.49
2022-12-13T18:33:58.798Z,-4.44
2022-12-13T18:36:44.943Z,-4.65
2022-12-13T18:39:26.990Z,-4.64
2022-12-13T18:41:57.883Z,-4.74
2022-12-13T18:44:40.401Z,-4.80
2022-12-13T18:47:21.014Z,-4.74
2022-12-13T18:49:55.288Z,-5.06
2022-12-13T18:52:46.445Z,-4.87
2022-12-13T18:55:20.816Z,-4.89
2022-12-13T18:58:01.955Z,-5.14
2022-12-13T19:00:38.718Z,-4.88
2022-12-13T19:03:14.142Z,-4.80
2022-12-13T19:05:45.053Z,-4.60
2022-12-13T19:08:13.655Z,-4.60
2022-12-13T19:10:47.908Z,-4.43
2022-12-13T19:13:23.335Z,-4.59
2022-12-13T19:16:07.497Z,-4.64
2022-12-13T19:18:40.643Z,-4.49
2022-12-13T19:21:10.109Z,-4.43
2022-12-13T19:23:40.752Z,-4.47
2022-12-13T19:26:10.852Z,-4.58
2022-12-13T19:28:41.338Z,-4.43
2022-12-13T19:31:13.934Z,-4.67
2022-12-13T19:33:42.062Z,-4.87
2022-12-13T19:36:10.590Z,-4.71
2022-12-13T19:38:41.900Z,-4.74
2022-12-13T19:41:11.102Z,-4.99
2022-12-13T19:43:39.207Z,-4.96
2022-12-13T19:46:07.438Z,-4.89
2022-12-13T19:48:37.836Z,-4.85
2022-12-13T19:51:08.415Z,-4.76
2022-12-13T19:53:37.481Z,-4.84
2022-12-13T19:56:10.888Z,-5.05
2022-12-13T19:58:39.125Z,-5.00
2022-12-13T20:01:08.404Z,-4.75
2022-12-13T20:03:39.774Z,-4.83
2022-12-13T20:06:11.723Z,-5.06
2022-12-13T20:08:39.812Z,-5.06
2022-12-13T20:11:11.432Z,-5.30
2022-12-13T20:13:42.697Z,-5.26
2022-12-13T20:16:16.882Z,-5.11
2022-12-13T20:18:47.246Z,-5.16
2022-12-13T20:21:16.120Z,-5.16
2022-12-13T20:23:49.005Z,-5.00
2022-12-13T20:26:20.969Z,-5.09
2022-12-13T20:28:49.015Z,-5.04
2022-12-13T20:31:19.760Z,-5.21
2022-12-13T20:33:49.529Z,-5.03
2022-12-13T20:36:27.398Z,-5.01
2022-12-13T20:38:57.330Z,-5.11
2022-12-13T20:41:27.142Z,-5.01
2022-12-13T20:43:57.918Z,-4.92
2022-12-13T20:46:26.900Z,-4.85
2022-12-13T20:48:57.745Z,-5.06
2022-12-13T20:51:28.420Z,-4.88
2022-12-13T20:53:57.892Z,-4.77
2022-12-13T20:56:27.041Z,-4.82
2022-12-13T20:58:55.486Z,-4.93
2022-12-13T21:01:25.499Z,-4.76
2022-12-13T21:03:57.015Z,-4.89
2022-12-13T21:06:25.267Z,-5.00
2022-12-13T21:08:54.634Z,-5.08
2022-12-13T21:11:27.717Z,-5.05
2022-12-13T21:14:07.498Z,-4.97
2022-12-13T21:16:39.768Z,-4.75
2022-12-13T21:19:10.921Z,-4.79
2022-12-13T21:21:39.074Z,-4.78
2022-12-13T21:24:09.072Z,-4.46
2022-12-13T21:26:37.064Z,-4.50
2022-12-13T21:29:07.602Z,-4.68
2022-12-13T21:31:36.841Z,-4.70
2022-12-13T21:34:07.522Z,-4.65
2022-12-13T21:36:38.235Z,-4.73
2022-12-13T21:39:08.293Z,-4.54
2022-12-13T21:41:36.780Z,-4.44
2022-12-13T21:44:04.923Z,-4.47
2022-12-13T21:47:10.092Z,-4.49
2022-12-13T21:49:24.621Z,-4.36
2022-12-13T21:51:55.046Z,-4.33
2022-12-13T21:54:23.589Z,-4.40
2022-12-13T21:57:10.107Z,-4.62
2022-12-13T21:59:38.668Z,-4.67
2022-12-13T22:02:16.343Z,-4.86
2022-12-13T22:04:49.878Z,-4.80
2022-12-13T22:07:21.520Z,-4.72
2022-12-13T22:09:50.482Z,-4.85
2022-12-13T22:12:22.144Z,-4.93
2022-12-13T22:14:51.104Z,-4.80
2022-12-13T22:17:19.455Z,-4.85
2022-12-13T22:19:48.788Z,-4.63
2022-12-13T22:22:21.197Z,-4.75
2022-12-13T22:24:53.467Z,-4.84
2022-12-13T22:27:25.957Z,-5.03
2022-12-13T22:29:56.778Z,-5.10
2022-12-13T22:32:27.239Z,-5.18
2022-12-13T22:34:55.618Z,-5.01
2022-12-13T22:37:25.771Z,-4.75
2022-12-13T22:39:54.045Z,-4.74
2022-12-13T22:42:22.623Z,-4.60
2022-12-13T22:44:50.971Z,-4.65
2022-12-13T22:47:18.922Z,-4.53
2022-12-13T22:49:48.743Z,-4.65
2022-12-13T22:52:18.759Z,-4.68
2022-12-13T22:54:48.114Z,-4.85
2022-12-13T22:57:16.042Z,-4.81
2022-12-13T22:59:43.967Z,-4.91
2022-12-13T23:02:12.643Z,-4.91
2022-12-13T23:04:42.474Z,-4.99
2022-12-13T23:07:10.864Z,-4.90
2022-12-13T23:09:38.922Z,-4.93
2022-12-13T23:12:26.205Z,-4.82
2022-12-13T23:14:55.116Z,-4.82
2022-12-13T23:17:23.191Z,-4.94
2022-12-13T23:19:53.323Z,-5.06
2022-12-13T23:22:22.513Z,-5.16
2022-12-13T23:24:50.595Z,-5.20
2022-12-13T23:27:21.537Z,-5.30
2022-12-13T23:29:49.564Z,-5.17
2022-12-13T23:32:17.959Z,-5.03
2022-12-13T23:34:45.997Z,-4.92
2022-12-13T23:37:13.903Z,-5.19
2022-12-13T23:39:41.924Z,-4.90
2022-12-13T23:42:10.044Z,-5.14
2022-12-13T23:44:39.383Z,-5.01
2022-12-13T23:47:07.413Z,-4.87
2022-12-13T23:49:35.482Z,-4.93
2022-12-13T23:52:04.703Z,-4.77
2022-12-13T23:54:32.575Z,-4.82
2022-12-13T23:57:00.474Z,-4.65
2022-12-13T23:59:28.878Z,-4.56
